Time;durP1;ratioP1;P1;durP2;ratioP2;P2;SDS_P1;SDS_P2;PMS_P1;PMS_P2;Temp;Humidity;BMP_temperature;BMP_pressure;BME280_temperature;BME280_humidity;BME280_pressure;Samples;Min_cycle;Max_cycle;Signal;HPM_P1;HPM_P2
2022/12/30 00:01:12;;;;;;;25.58;3.97;;;7.00;99.90;;;;;;4971118;28;20042;-86
2022/12/30 00:03:37;;;;;;;27.73;4.65;;;7.10;99.90;;;;;;4974521;28;20050;-85
2022/12/30 00:06:14;;;;;;;23.17;3.53;;;7.00;99.90;;;;;;4972452;28;20046;-85
2022/12/30 00:08:46;;;;;;;19.55;3.63;;;7.00;99.90;;;;;;4963568;28;20042;-86
2022/12/30 00:11:20;;;;;;;25.05;3.63;;;7.00;99.90;;;;;;4972490;28;20046;-86
2022/12/30 00:33:27;;;;;;;21.88;3.47;;;6.90;99.90;;;;;;4992560;28;20054;-86
2022/12/30 00:35:53;;;;;;;18.40;3.50;;;6.80;99.90;;;;;;4992886;28;20069;-85
2022/12/30 00:38:18;;;;;;;22.73;3.55;;;6.80;99.90;;;;;;4972398;28;20495;-86
2022/12/30 00:43:07;;;;;;;18.63;2.67;;;6.80;99.90;;;;;;4987603;28;20046;-85
2022/12/30 00:43:30;;;;;;;20.45;3.20;;;6.80;99.90;;;;;;4992734;28;20054;-85
2022/12/30 00:45:56;;;;;;;26.73;3.72;;;6.80;99.90;;;;;;4992739;28;20042;-85
2022/12/30 00:56:36;;;;;;;20.20;3.45;;;6.70;99.90;;;;;;4992904;28;20047;-86
2022/12/30 00:59:03;;;;;;;21.45;4.00;;;6.70;99.90;;;;;;4993382;28;20454;-86
2022/12/30 01:01:28;;;;;;;19.58;3.28;;;6.70;99.90;;;;;;4991624;28;20537;-85
2022/12/30 01:03:54;;;;;;;21.05;3.42;;;6.70;99.90;;;;;;4975406;28;20046;-85
2022/12/30 01:06:19;;;;;;;16.77;3.08;;;6.70;99.90;;;;;;4973929;28;20113;-86
2022/12/30 01:08:45;;;;;;;24.88;3.72;;;6.70;99.90;;;;;;4992206;28;20050;-86
2022/12/30 01:11:11;;;;;;;24.08;3.95;;;6.70;99.90;;;;;;4974258;28;20053;-86
2022/12/30 01:13:37;;;;;;;18.35;3.53;;;6.70;99.90;;;;;;4993043;28;20046;-86
2022/12/30 01:16:07;;;;;;;15.85;3.10;;;6.70;99.90;;;;;;4975466;28;20055;-85
2022/12/30 01:18:33;;;;;;;24.17;3.38;;;6.70;99.90;;;;;;4977564;28;20097;-86
2022/12/30 01:20:59;;;;;;;18.50;3.42;;;6.70;99.90;;;;;;4975887;28;20038;-85
2022/12/30 01:23:25;;;;;;;27.27;3.92;;;6.70;99.90;;;;;;4974618;28;20087;-85
2022/12/30 01:25:51;;;;;;;24.92;3.75;;;6.70;99.90;;;;;;4995487;28;20073;-85
2022/12/30 01:28:16;;;;;;;20.52;3.20;;;6.70;99.90;;;;;;4977755;28;20549;-85
2022/12/30 01:30:42;;;;;;;23.10;3.63;;;6.70;99.90;;;;;;4978519;28;20054;-85
2022/12/30 01:33:07;;;;;;;20.67;3.30;;;6.70;99.90;;;;;;4975438;28;20101;-85
2022/12/30 01:35:36;;;;;;;24.30;3.83;;;6.70;99.90;;;;;;4973842;28;20050;-85
2022/12/30 01:38:02;;;;;;;22.10;3.45;;;6.70;99.90;;;;;;4996480;28;20566;-85
2022/12/30 01:40:27;;;;;;;18.35;3.00;;;6.60;99.90;;;;;;4975477;28;20129;-85
2022/12/30 01:42:53;;;;;;;22.92;4.00;;;6.70;99.90;;;;;;4994306;28;20085;-85
2022/12/30 01:45:21;;;;;;;23.85;3.67;;;6.70;99.90;;;;;;4978183;28;20043;-85
2022/12/30 01:47:57;;;;;;;28.20;3.47;;;6.60;99.90;;;;;;4995763;28;20437;-86
2022/12/30 01:50:43;;;;;;;18.73;3.35;;;6.60;99.90;;;;;;4974593;28;20086;-86
2022/12/30 01:53:23;;;;;;;24.13;3.10;;;6.60;99.90;;;;;;4974170;28;20125;-86
2022/12/30 01:55:59;;;;;;;21.00;3.42;;;6.60;99.90;;;;;;4972378;28;20076;-85
2022/12/30 01:58:56;;;;;;;21.88;3.13;;;6.60;99.90;;;;;;4969288;28;20070;-85
2022/12/30 02:01:22;;;;;;;22.02;3.70;;;6.60;99.90;;;;;;4992849;28;20070;-86
2022/12/30 02:04:04;;;;;;;21.30;3.33;;;6.60;99.90;;;;;;4975629;28;20084;-86
2022/12/30 02:07:01;;;;;;;18.00;3.35;;;6.60;99.90;;;;;;4978377;28;20049;-86
2022/12/30 02:09:29;;;;;;;19.63;3.38;;;6.50;99.90;;;;;;4974748;28;20411;-85
2022/12/30 02:11:55;;;;;;;14.73;3.03;;;6.50;99.90;;;;;;4973203;28;20125;-85
2022/12/30 02:14:21;;;;;;;16.35;3.05;;;6.50;99.90;;;;;;4995546;28;20050;-85
2022/12/30 02:17:08;;;;;;;24.08;3.63;;;6.50;99.90;;;;;;4995992;28;20050;-86
2022/12/30 02:19:55;;;;;;;19.60;2.92;;;6.50;99.90;;;;;;4994613;28;20434;-86
2022/12/30 02:22:48;;;;;;;22.10;3.20;;;6.50;99.90;;;;;;4995044;28;20046;-86
2022/12/30 02:25:48;;;;;;;17.53;3.07;;;6.50;99.90;;;;;;4974174;28;20047;-86
2022/12/30 02:28:25;;;;;;;22.70;3.78;;;6.40;99.90;;;;;;4967315;28;20871;-85
2022/12/30 02:31:08;;;;;;;18.65;2.78;;;6.40;99.90;;;;;;4995480;28;20124;-86
2022/12/30 02:34:03;;;;;;;18.02;3.55;;;6.40;99.90;;;;;;4989562;28;20081;-84
2022/12/30 02:36:56;;;;;;;17.83;2.95;;;6.40;99.90;;;;;;4939449;28;20553;-85
2022/12/30 02:39:44;;;;;;;18.55;3.25;;;6.40;99.90;;;;;;4973305;28;20047;-86
2022/12/30 02:45:18;;;;;;;19.65;3.70;;;6.40;99.90;;;;;;4983255;28;20089;-85
2022/12/30 02:47:52;;;;;;;20.63;3.28;;;6.30;99.90;;;;;;4994380;28;20050;-86
2022/12/30 02:53:09;;;;;;;23.00;4.00;;;6.30;99.90;;;;;;4976085;28;20078;-86
2022/12/30 02:55:34;;;;;;;18.15;3.17;;;6.30;99.90;;;;;;4995153;28;20038;-86
2022/12/30 02:58:00;;;;;;;15.77;2.90;;;6.30;99.90;;;;;;4976898;28;20042;-86
2022/12/30 03:03:58;;;;;;;16.73;3.30;;;6.30;99.90;;;;;;4991904;28;20054;-85
2022/12/30 03:06:56;;;;;;;19.98;3.30;;;6.30;99.90;;;;;;4974410;28;20057;-86
2022/12/30 03:13:10;;;;;;;17.20;3.13;;;6.20;99.90;;;;;;4973348;28;20464;-86
2022/12/30 03:15:53;;;;;;;17.98;3.50;;;6.20;99.90;;;;;;4978967;28;20050;-86
2022/12/30 03:18:21;;;;;;;16.95;2.85;;;6.20;99.90;;;;;;4976605;28;20053;-86
2022/12/30 03:20:48;;;;;;;19.92;3.45;;;6.20;99.90;;;;;;4973391;28;20137;-86
2022/12/30 03:28:47;;;;;;;17.63;3.33;;;6.10;99.90;;;;;;4993572;28;20054;-86
2022/12/30 03:31:15;;;;;;;19.30;2.88;;;6.10;99.90;;;;;;4973191;28;20034;-86
2022/12/30 03:33:42;;;;;;;20.73;3.63;;;6.10;99.90;;;;;;4990769;28;20117;-85
2022/12/30 03:36:25;;;;;;;19.25;3.15;;;6.10;99.90;;;;;;4972224;28;20126;-85
2022/12/30 03:38:57;;;;;;;23.38;3.17;;;6.10;99.90;;;;;;4969855;28;20042;-85
2022/12/30 03:41:24;;;;;;;16.90;3.03;;;6.00;99.90;;;;;;4967649;28;20050;-85
2022/12/30 03:43:49;;;;;;;23.20;2.97;;;6.00;99.90;;;;;;4961725;28;20464;-85
2022/12/30 03:46:17;;;;;;;17.10;3.35;;;6.00;99.90;;;;;;4955557;28;20042;-85
2022/12/30 03:48:43;;;;;;;21.70;3.25;;;6.00;99.90;;;;;;4972577;28;20445;-85
2022/12/30 03:51:09;;;;;;;16.52;2.72;;;6.00;99.90;;;;;;4955952;28;20102;-85
2022/12/30 03:53:34;;;;;;;19.55;3.08;;;6.00;99.90;;;;;;4962657;28;20043;-85
2022/12/30 03:56:00;;;;;;;15.98;2.65;;;6.00;99.90;;;;;;4959190;28;20042;-85
2022/12/30 03:58:25;;;;;;;15.05;2.95;;;6.00;99.90;;;;;;4959150;28;20391;-85
2022/12/30 04:00:51;;;;;;;17.33;3.17;;;6.00;99.90;;;;;;4975283;28;20047;-85
2022/12/30 04:03:17;;;;;;;17.92;3.55;;;5.90;99.90;;;;;;4982444;28;20035;-86
2022/12/30 04:05:42;;;;;;;15.75;2.58;;;5.90;99.90;;;;;;4971595;28;20158;-86
2022/12/30 04:08:08;;;;;;;17.00;2.67;;;5.90;99.90;;;;;;4972903;28;20048;-85
2022/12/30 04:10:33;;;;;;;17.08;3.00;;;5.90;99.90;;;;;;4975400;28;20038;-86
2022/12/30 04:12:59;;;;;;;18.50;2.83;;;6.00;99.90;;;;;;4975014;28;20421;-85
2022/12/30 04:15:25;;;;;;;20.23;3.75;;;5.90;99.90;;;;;;4974376;28;20061;-86
2022/12/30 04:17:50;;;;;;;17.95;3.13;;;5.90;99.90;;;;;;4992168;28;20125;-85
2022/12/30 04:20:16;;;;;;;16.73;2.90;;;5.90;99.90;;;;;;4975304;28;20069;-85
2022/12/30 04:22:41;;;;;;;20.40;2.90;;;5.90;99.90;;;;;;4993249;28;20038;-85
2022/12/30 04:25:07;;;;;;;22.10;3.17;;;5.90;99.90;;;;;;4991767;28;20038;-86
2022/12/30 04:27:33;;;;;;;16.23;2.88;;;5.80;99.90;;;;;;4992870;28;20078;-85
2022/12/30 04:29:59;;;;;;;18.90;3.53;;;5.80;99.90;;;;;;4980574;28;20100;-85
2022/12/30 04:32:24;;;;;;;19.08;2.85;;;5.80;99.90;;;;;;4997899;28;20049;-85
2022/12/30 04:34:50;;;;;;;17.25;2.60;;;5.80;99.90;;;;;;4974896;28;20042;-85
2022/12/30 04:37:15;;;;;;;18.58;3.25;;;5.80;99.90;;;;;;4971763;28;20130;-86
2022/12/30 04:39:41;;;;;;;16.75;2.85;;;5.80;99.90;;;;;;4989602;28;20383;-86
2022/12/30 04:42:07;;;;;;;14.73;2.70;;;5.70;99.90;;;;;;4972005;28;20039;-85
2022/12/30 04:44:32;;;;;;;20.08;3.35;;;5.70;99.90;;;;;;4993139;28;20057;-86
2022/12/30 04:46:58;;;;;;;17.42;3.55;;;5.70;99.90;;;;;;5001456;28;20042;-85
2022/12/30 04:49:24;;;;;;;17.27;2.88;;;5.70;99.90;;;;;;4980471;28;20052;-85
2022/12/30 04:51:49;;;;;;;16.77;2.75;;;5.70;99.90;;;;;;4976571;28;20039;-85
2022/12/30 04:54:15;;;;;;;15.95;3.22;;;5.70;99.90;;;;;;4973833;28;20137;-85
2022/12/30 04:56:41;;;;;;;18.50;3.63;;;5.60;99.90;;;;;;4997070;28;20125;-85
2022/12/30 04:59:06;;;;;;;21.00;3.33;;;5.70;99.90;;;;;;4975871;28;20471;-85
2022/12/30 05:01:32;;;;;;;19.67;3.30;;;5.60;99.90;;;;;;4975309;28;20047;-86
2022/12/30 05:03:57;;;;;;;18.05;3.30;;;5.60;99.90;;;;;;4975768;28;20038;-85
2022/12/30 05:06:23;;;;;;;15.77;2.90;;;5.60;99.90;;;;;;4976721;28;20046;-84
2022/12/30 05:08:49;;;;;;;14.25;3.20;;;5.60;99.90;;;;;;4996522;28;20046;-86
2022/12/30 05:11:14;;;;;;;18.08;3.75;;;5.60;99.90;;;;;;4976611;28;20054;-85
2022/12/30 05:13:40;;;;;;;16.23;3.50;;;5.60;99.90;;;;;;4995556;28;20062;-85
2022/12/30 05:16:06;;;;;;;21.92;3.97;;;5.60;99.90;;;;;;4996653;28;20042;-86
2022/12/30 05:18:31;;;;;;;16.20;3.63;;;5.60;99.90;;;;;;4995936;28;20053;-86
2022/12/30 05:20:57;;;;;;;17.40;3.58;;;5.60;99.90;;;;;;4995659;28;20039;-85
2022/12/30 05:26:27;;;;;;;20.05;3.75;;;5.50;99.90;;;;;;4952074;29;20048;-86
2022/12/30 05:28:52;;;;;;;19.00;3.50;;;5.50;99.90;;;;;;4919563;29;20171;-85
2022/12/30 05:31:19;;;;;;;17.95;3.67;;;5.50;99.90;;;;;;4954827;28;20047;-84
2022/12/30 05:33:45;;;;;;;21.13;3.95;;;5.50;99.90;;;;;;4995627;28;20041;-85
2022/12/30 05:36:11;;;;;;;17.73;4.18;;;5.50;99.90;;;;;;4974623;28;20117;-85
2022/12/30 05:38:37;;;;;;;18.73;3.30;;;5.50;99.90;;;;;;4974949;28;20050;-85
2022/12/30 05:41:04;;;;;;;17.65;3.97;;;5.50;99.90;;;;;;4977215;28;20094;-86
2022/12/30 05:43:30;;;;;;;14.98;3.35;;;5.50;99.90;;;;;;4994915;28;20521;-86
2022/12/30 05:45:57;;;;;;;23.55;3.78;;;5.40;99.90;;;;;;4995817;28;20042;-85
2022/12/30 05:48:23;;;;;;;19.60;3.65;;;5.40;99.90;;;;;;4973953;28;20070;-86
2022/12/30 05:50:49;;;;;;;16.65;3.40;;;5.40;99.90;;;;;;4973562;28;20046;-86
2022/12/30 05:53:15;;;;;;;17.35;2.90;;;5.40;99.90;;;;;;4995093;28;20057;-86
2022/12/30 05:55:41;;;;;;;22.02;3.63;;;5.40;99.90;;;;;;4995292;28;20042;-86
2022/12/30 05:58:06;;;;;;;15.82;3.15;;;5.40;99.90;;;;;;4975012;28;20117;-86
2022/12/30 06:00:32;;;;;;;16.83;3.00;;;5.40;99.90;;;;;;4986578;28;20498;-86
2022/12/30 06:02:57;;;;;;;17.85;3.45;;;5.40;99.90;;;;;;4993553;28;21499;-85
2022/12/30 06:05:23;;;;;;;15.23;3.17;;;5.40;99.90;;;;;;4994648;28;20042;-85
2022/12/30 06:07:49;;;;;;;14.55;3.30;;;5.40;99.90;;;;;;4995592;28;20046;-85
2022/12/30 06:10:15;;;;;;;16.08;2.92;;;5.30;99.90;;;;;;4980641;28;20129;-85
2022/12/30 06:12:40;;;;;;;18.20;3.45;;;5.30;99.90;;;;;;4968049;28;20133;-85
2022/12/30 06:15:07;;;;;;;14.02;2.88;;;5.40;99.90;;;;;;4994139;28;20491;-85
2022/12/30 06:17:32;;;;;;;17.83;3.50;;;5.30;99.90;;;;;;4974556;28;20053;-86
2022/12/30 06:19:58;;;;;;;16.52;2.85;;;5.40;99.90;;;;;;4992036;28;20643;-85
2022/12/30 06:22:23;;;;;;;13.23;2.83;;;5.30;99.90;;;;;;4974094;28;20510;-86
2022/12/30 06:24:49;;;;;;;17.20;3.10;;;5.30;99.90;;;;;;4972965;28;20137;-85
2022/12/30 06:27:14;;;;;;;15.57;3.10;;;5.30;99.90;;;;;;4977534;28;20050;-85
2022/12/30 06:29:40;;;;;;;20.25;3.30;;;5.30;99.90;;;;;;4996155;28;20101;-86
2022/12/30 06:32:06;;;;;;;19.73;3.00;;;5.30;99.90;;;;;;4994049;28;20050;-86
2022/12/30 06:34:31;;;;;;;13.10;2.45;;;5.40;99.90;;;;;;4974397;28;20051;-85
2022/12/30 06:36:57;;;;;;;13.60;2.92;;;5.30;99.90;;;;;;4991660;28;20042;-86
2022/12/30 06:39:23;;;;;;;17.75;2.90;;;5.30;99.90;;;;;;4976310;28;20045;-86
2022/12/30 06:41:48;;;;;;;15.23;2.63;;;5.30;99.90;;;;;;4995472;28;20042;-85
2022/12/30 06:44:14;;;;;;;16.63;3.03;;;5.30;99.90;;;;;;4994328;28;20537;-86
2022/12/30 06:46:39;;;;;;;15.05;2.80;;;5.30;99.90;;;;;;4976786;28;20030;-85
2022/12/30 06:49:05;;;;;;;19.95;3.22;;;5.30;99.90;;;;;;4975236;28;20088;-86
2022/12/30 06:51:30;;;;;;;15.25;2.70;;;5.30;99.90;;;;;;4976352;28;20042;-85
2022/12/30 06:53:56;;;;;;;21.60;2.72;;;5.20;99.90;;;;;;4977170;28;20050;-85
2022/12/30 06:56:22;;;;;;;14.75;2.75;;;5.20;99.90;;;;;;4974714;28;20050;-86
2022/12/30 06:58:47;;;;;;;15.68;2.50;;;5.20;99.90;;;;;;4972569;28;20053;-86
2022/12/30 07:01:13;;;;;;;20.70;2.97;;;5.20;99.90;;;;;;4977460;28;20046;-85
2022/12/30 07:03:39;;;;;;;14.52;3.13;;;5.20;99.90;;;;;;4973431;28;20048;-86
2022/12/30 07:06:05;;;;;;;15.25;2.80;;;5.20;99.90;;;;;;4997010;28;20053;-85
2022/12/30 07:08:31;;;;;;;17.92;2.53;;;5.20;99.90;;;;;;4974056;28;20046;-85
2022/12/30 07:10:57;;;;;;;19.23;2.90;;;5.20;99.90;;;;;;4978215;28;20085;-85
2022/12/30 07:13:22;;;;;;;15.98;2.85;;;5.20;99.90;;;;;;4976465;28;20049;-85
2022/12/30 07:15:48;;;;;;;14.80;2.53;;;5.20;99.90;;;;;;4976054;28;20125;-84
2022/12/30 07:18:16;;;;;;;17.15;3.45;;;5.20;99.90;;;;;;4994183;28;20080;-84
2022/12/30 07:20:42;;;;;;;18.58;3.30;;;5.20;99.90;;;;;;4974674;28;20049;-85
2022/12/30 07:23:08;;;;;;;19.70;2.78;;;5.20;99.90;;;;;;4974351;28;20066;-87
2022/12/30 07:25:36;;;;;;;18.15;3.15;;;5.20;99.90;;;;;;4960755;28;20038;-86
2022/12/30 07:28:03;;;;;;;13.98;2.55;;;5.20;99.90;;;;;;4973368;28;20514;-86
2022/12/30 07:30:29;;;;;;;17.92;3.13;;;5.20;99.90;;;;;;4989257;28;20039;-90
2022/12/30 07:33:07;;;;;;;20.58;3.33;;;5.20;99.90;;;;;;4986697;28;20049;-92
2022/12/30 07:35:33;;;;;;;17.33;2.88;;;5.20;99.90;;;;;;4974966;28;20039;-91
2022/12/30 07:37:58;;;;;;;14.32;2.80;;;5.20;99.90;;;;;;4994551;28;20117;-88
2022/12/30 07:40:24;;;;;;;17.48;3.13;;;5.20;99.90;;;;;;4993523;28;20043;-82
2022/12/30 07:42:50;;;;;;;16.58;2.95;;;5.20;99.90;;;;;;4974485;28;20045;-84
2022/12/30 07:45:15;;;;;;;17.85;3.08;;;5.10;99.90;;;;;;4994356;28;20051;-90
2022/12/30 07:47:44;;;;;;;16.83;3.20;;;5.10;99.90;;;;;;4994074;28;20414;-89
2022/12/30 07:50:25;;;;;;;17.88;3.40;;;5.10;99.90;;;;;;4976424;28;20042;-89
2022/12/30 07:52:51;;;;;;;18.45;3.17;;;5.10;99.90;;;;;;4995230;28;20072;-89
2022/12/30 07:55:20;;;;;;;18.02;3.03;;;5.10;99.90;;;;;;4975562;28;20147;-90
2022/12/30 07:57:53;;;;;;;18.88;3.20;;;5.10;99.90;;;;;;4985948;28;20483;-90
2022/12/30 08:00:34;;;;;;;16.48;2.97;;;5.20;99.90;;;;;;4993596;28;20042;-90
2022/12/30 08:02:59;;;;;;;17.35;3.22;;;5.20;99.90;;;;;;4974480;28;20049;-87
2022/12/30 08:05:25;;;;;;;18.38;3.22;;;5.10;99.90;;;;;;4975865;28;20039;-88
2022/12/30 08:07:52;;;;;;;14.48;2.85;;;5.10;99.90;;;;;;4993871;28;20050;-89
2022/12/30 08:10:19;;;;;;;15.10;2.95;;;5.10;99.90;;;;;;4972700;28;20035;-89
2022/12/30 08:12:53;;;;;;;15.75;3.17;;;5.10;99.90;;;;;;4984281;28;20082;-90
2022/12/30 08:15:18;;;;;;;16.88;3.05;;;5.10;99.90;;;;;;4959764;28;20422;-90
2022/12/30 08:17:44;;;;;;;13.65;2.60;;;5.10;99.90;;;;;;4983220;28;20224;-90
2022/12/30 08:20:10;;;;;;;15.10;2.70;;;5.10;99.90;;;;;;4991002;28;20045;-87
2022/12/30 08:22:39;;;;;;;12.18;2.63;;;5.10;99.90;;;;;;4972603;28;20380;-87
2022/12/30 08:25:05;;;;;;;17.58;2.90;;;5.20;99.90;;;;;;4972597;28;20490;-87
2022/12/30 08:27:34;;;;;;;17.50;3.53;;;5.10;99.90;;;;;;4975481;28;20093;-88
2022/12/30 08:30:02;;;;;;;17.30;3.33;;;5.20;99.90;;;;;;4973780;28;20047;-86
2022/12/30 08:32:30;;;;;;;13.85;2.60;;;5.10;99.90;;;;;;4970060;28;20051;-88
2022/12/30 08:35:04;;;;;;;15.15;2.75;;;5.20;99.90;;;;;;4988010;28;20115;-87
2022/12/30 08:37:32;;;;;;;14.75;2.70;;;5.10;99.90;;;;;;4965231;28;20063;-86
2022/12/30 08:39:58;;;;;;;13.05;2.65;;;5.20;99.90;;;;;;4969109;28;20054;-87
2022/12/30 08:42:26;;;;;;;18.83;3.22;;;5.20;99.90;;;;;;4992670;28;20045;-87
2022/12/30 08:44:52;;;;;;;12.95;2.83;;;5.20;99.90;;;;;;4992223;28;20487;-86
2022/12/30 08:47:21;;;;;;;15.38;3.28;;;5.20;99.90;;;;;;4975903;28;20125;-86
2022/12/30 08:49:58;;;;;;;12.40;2.97;;;5.20;99.90;;;;;;4980146;28;20050;-87
2022/12/30 08:52:28;;;;;;;12.73;2.45;;;5.20;99.90;;;;;;4973332;28;20074;-87
2022/12/30 08:54:58;;;;;;;16.38;2.83;;;5.20;99.90;;;;;;4974418;28;20093;-87
2022/12/30 08:57:24;;;;;;;12.45;2.80;;;5.20;99.90;;;;;;4972311;28;20099;-88
2022/12/30 08:59:53;;;;;;;16.95;3.03;;;5.20;99.90;;;;;;4991270;28;20042;-87
2022/12/30 09:02:18;;;;;;;14.40;2.85;;;5.20;99.90;;;;;;4993083;28;20093;-88
2022/12/30 09:04:44;;;;;;;12.70;2.60;;;5.20;99.90;;;;;;4992807;28;20038;-88
2022/12/30 09:07:10;;;;;;;14.50;2.88;;;5.20;99.90;;;;;;4975178;28;20050;-89
2022/12/30 09:09:36;;;;;;;13.85;2.63;;;5.20;99.90;;;;;;4994086;28;20054;-89
2022/12/30 09:12:05;;;;;;;16.20;3.13;;;5.20;99.90;;;;;;4972743;28;20089;-89
2022/12/30 09:14:31;;;;;;;12.88;2.50;;;5.30;99.90;;;;;;4990683;28;20046;-91
2022/12/30 09:16:56;;;;;;;16.50;2.80;;;5.30;99.90;;;;;;4973682;28;20376;-90
2022/12/30 09:37:04;;;;;;;;;;;;;;;;;;;;;
2022/12/30 09:40:46;;;;;;;;;;;;;;;;;;;;;
2022/12/30 09:44:23;;;;;;;;;;;;;;;;;;;;;
2022/12/30 09:51:48;;;;;;;;;;;;;;;;;;;;;
2022/12/30 10:02:10;;;;;;;;;;;;;;;;;;;;;
2022/12/30 10:05:46;;;;;;;13.82;2.47;;;5.60;99.90;;;;;;4994208;28;20057;-85
2022/12/30 10:09:08;;;;;;;15.15;3.08;;;5.70;99.90;;;;;;4937905;28;20058;-85
2022/12/30 10:13:08;;;;;;;;;;;;;;;;;;;;;
2022/12/30 10:20:19;;;;;;;13.00;2.45;;;5.80;99.90;;;;;;4876757;29;20194;-85
2022/12/30 10:24:10;;;;;;;;;;;;;;;;;;;;;
2022/12/30 10:27:52;;;;;;;;;;;;;;;;;;;;;
2022/12/30 10:31:07;;;;;;;10.68;2.40;;;5.90;99.90;;;;;;4844799;29;20541;-85
2022/12/30 10:37:33;;;;;;;14.60;2.83;;;6.00;99.90;;;;;;4870419;29;20053;-85
2022/12/30 10:40:02;;;;;;;14.35;2.17;;;6.00;99.90;;;;;;4882050;29;20056;-85
2022/12/30 10:42:36;;;;;;;18.58;2.60;;;6.00;99.90;;;;;;4917045;28;20055;-85
2022/12/30 10:45:17;;;;;;;16.20;5.60;;;6.10;99.90;;;;;;4957350;28;20417;-85
2022/12/30 10:47:51;;;;;;;13.07;2.88;;;6.10;99.90;;;;;;4973356;28;20050;-85
2022/12/30 10:50:25;;;;;;;11.25;3.08;;;6.10;99.90;;;;;;4958060;28;20054;-85
2022/12/30 10:52:54;;;;;;;11.13;1.95;;;6.10;99.90;;;;;;4967113;28;20050;-85
2022/12/30 10:55:32;;;;;;;13.35;2.75;;;6.20;99.90;;;;;;4977592;28;20054;-85
2022/12/30 10:58:05;;;;;;;15.85;2.33;;;6.20;99.90;;;;;;4994557;28;20042;-85
2022/12/30 11:00:39;;;;;;;10.77;2.25;;;6.20;99.90;;;;;;4978071;28;20490;-85
2022/12/30 11:03:30;;;;;;;13.90;2.25;;;6.30;99.90;;;;;;4978112;28;20050;-85
2022/12/30 11:06:19;;;;;;;10.38;2.05;;;6.30;99.90;;;;;;4994658;28;20046;-85
2022/12/30 11:08:44;;;;;;;10.77;1.80;;;6.30;99.90;;;;;;4977678;28;20141;-85
2022/12/30 11:11:10;;;;;;;7.78;1.90;;;6.40;99.90;;;;;;4994897;28;20125;-85
2022/12/30 11:16:29;;;;;;;8.02;1.75;;;6.50;99.90;;;;;;4994834;28;20054;-85
2022/12/30 11:18:57;;;;;;;11.30;1.85;;;6.60;99.90;;;;;;4980849;28;20106;-85
2022/12/30 11:21:25;;;;;;;7.80;1.55;;;6.60;99.90;;;;;;4977424;28;20042;-85
2022/12/30 11:23:57;;;;;;;10.88;1.92;;;6.70;99.90;;;;;;4994954;28;20050;-85
2022/12/30 11:26:25;;;;;;;6.50;1.60;;;6.70;99.90;;;;;;4976738;28;20438;-85
2022/12/30 11:29:09;;;;;;;9.20;1.85;;;6.70;99.90;;;;;;4994799;28;20070;-84
2022/12/30 11:31:43;;;;;;;8.90;1.80;;;6.70;99.90;;;;;;4976628;28;20141;-85
2022/12/30 11:34:24;;;;;;;8.27;1.52;;;6.70;99.90;;;;;;4993840;28;20064;-85
2022/12/30 11:36:50;;;;;;;11.32;1.92;;;6.80;99.90;;;;;;4977508;28;20057;-85
2022/12/30 11:39:16;;;;;;;11.13;2.00;;;6.80;99.90;;;;;;4994769;28;20047;-85
2022/12/30 11:41:47;;;;;;;9.65;1.98;;;6.90;99.90;;;;;;4976399;28;20046;-85
2022/12/30 11:44:32;;;;;;;6.47;1.50;;;6.90;99.90;;;;;;4976842;28;20042;-86
2022/12/30 11:47:04;;;;;;;6.85;1.52;;;6.90;99.90;;;;;;4994829;28;20042;-85
2022/12/30 11:49:53;;;;;;;8.82;1.63;;;7.00;99.90;;;;;;4976728;28;20050;-84
2022/12/30 11:52:26;;;;;;;8.73;2.10;;;7.00;99.90;;;;;;4976330;28;20093;-85
2022/12/30 11:54:57;;;;;;;7.20;1.77;;;7.00;99.90;;;;;;4993959;28;20039;-85
2022/12/30 11:57:30;;;;;;;8.18;1.50;;;7.10;99.90;;;;;;4976585;28;20394;-85
2022/12/30 12:00:20;;;;;;;11.50;1.88;;;7.10;99.90;;;;;;4976821;28;20046;-85
2022/12/30 12:02:48;;;;;;;8.93;1.63;;;7.10;99.90;;;;;;4976066;28;20133;-85
2022/12/30 12:05:20;;;;;;;8.35;1.70;;;7.10;99.90;;;;;;4976791;28;20049;-85
2022/12/30 12:07:47;;;;;;;10.18;1.85;;;7.20;99.90;;;;;;4976680;28;20502;-85
2022/12/30 12:11:02;;;;;;;7.95;1.65;;;7.20;99.90;;;;;;4993050;28;20125;-85
2022/12/30 12:13:52;;;;;;;5.55;1.27;;;7.20;99.90;;;;;;4952009;28;20083;-85
2022/12/30 12:16:31;;;;;;;7.38;1.75;;;7.10;99.90;;;;;;4975725;28;20048;-86
2022/12/30 12:19:07;;;;;;;10.57;1.90;;;7.20;99.90;;;;;;4976747;28;20056;-85
2022/12/30 12:21:37;;;;;;;7.00;1.55;;;7.10;99.90;;;;;;4993938;28;20050;-85
2022/12/30 12:24:31;;;;;;;9.85;1.90;;;7.20;99.90;;;;;;4975771;28;20046;-85
2022/12/30 12:27:17;;;;;;;8.10;1.58;;;7.20;99.90;;;;;;4991197;28;20047;-84
2022/12/30 12:29:43;;;;;;;10.40;1.90;;;7.20;99.90;;;;;;4990832;28;20415;-84
2022/12/30 12:32:43;;;;;;;8.13;1.63;;;7.20;99.90;;;;;;4973772;28;20509;-86
2022/12/30 12:35:20;;;;;;;6.88;1.58;;;7.30;99.90;;;;;;4972940;28;20103;-85
2022/12/30 12:38:23;;;;;;;9.60;1.70;;;7.30;99.90;;;;;;4974537;28;20058;-84
2022/12/30 12:41:04;;;;;;;8.25;1.50;;;7.30;99.90;;;;;;4979299;28;20382;-84
2022/12/30 12:44:04;;;;;;;7.22;1.60;;;7.40;99.90;;;;;;4993631;28;20097;-84
2022/12/30 12:46:52;;;;;;;8.90;1.85;;;7.40;99.90;;;;;;4975263;28;20498;-84
2022/12/30 12:49:44;;;;;;;8.27;1.88;;;7.40;99.90;;;;;;4974171;28;20053;-84
2022/12/30 12:52:40;;;;;;;8.20;1.60;;;7.40;99.90;;;;;;4987193;28;20054;-84
2022/12/30 12:55:30;;;;;;;7.50;1.63;;;7.50;99.90;;;;;;4992457;28;20042;-84
2022/12/30 12:58:12;;;;;;;8.48;1.50;;;7.50;99.90;;;;;;4974094;28;20439;-86
2022/12/30 13:00:58;;;;;;;11.90;1.83;;;7.50;99.90;;;;;;4975566;28;20096;-83
2022/12/30 13:03:35;;;;;;;7.28;1.60;;;7.60;99.90;;;;;;4961481;28;20055;-84
2022/12/30 13:06:07;;;;;;;9.85;1.80;;;7.60;99.90;;;;;;4975430;28;20097;-84
2022/12/30 13:08:35;;;;;;;9.90;2.08;;;7.60;99.90;;;;;;4975820;28;20086;-84
2022/12/30 13:11:12;;;;;;;10.32;2.00;;;7.60;99.90;;;;;;4994770;28;20038;-83
2022/12/30 13:13:59;;;;;;;9.80;2.15;;;7.60;99.90;;;;;;4979184;28;20074;-84
2022/12/30 13:16:33;;;;;;;8.65;2.05;;;7.70;99.90;;;;;;4997183;28;20058;-84
2022/12/30 13:19:01;;;;;;;7.10;1.70;;;7.70;99.90;;;;;;4996540;28;20390;-84
2022/12/30 13:21:27;;;;;;;6.53;1.80;;;7.70;99.90;;;;;;4979288;28;20808;-84
2022/12/30 13:23:58;;;;;;;8.40;1.65;;;7.70;99.90;;;;;;4997103;28;20038;-84
2022/12/30 13:26:29;;;;;;;11.55;2.05;;;7.80;99.90;;;;;;4995950;28;20046;-84
2022/12/30 13:28:57;;;;;;;8.63;1.90;;;7.80;99.90;;;;;;4979125;28;20054;-84
2022/12/30 13:31:59;;;;;;;9.38;1.85;;;7.80;99.90;;;;;;4995869;28;20132;-84
2022/12/30 13:34:43;;;;;;;10.70;1.83;;;7.80;99.90;;;;;;4978098;28;20081;-84
2022/12/30 13:37:34;;;;;;;7.68;1.77;;;7.80;99.90;;;;;;4979516;28;20479;-84
2022/12/30 13:40:07;;;;;;;8.93;1.63;;;7.90;99.90;;;;;;4973610;28;20054;-84
2022/12/30 13:43:02;;;;;;;11.10;1.73;;;7.90;99.90;;;;;;4975105;28;20046;-84
2022/12/30 13:45:35;;;;;;;7.18;2.10;;;7.90;99.90;;;;;;4984143;28;20084;-84
2022/12/30 13:48:10;;;;;;;;;;;8.00;99.90;;;;;;4974954;28;20074;-84
2022/12/30 13:50:38;;;;;;;9.85;1.50;;;7.90;99.90;;;;;;4976207;28;20262;-84
2022/12/30 13:53:22;;;;;;;10.60;2.03;;;7.90;99.90;;;;;;4977062;28;20058;-84
2022/12/30 13:55:51;;;;;;;7.93;1.92;;;8.00;99.90;;;;;;4995677;28;20049;-84
2022/12/30 13:58:30;;;;;;;6.40;1.67;;;8.00;99.90;;;;;;4994063;28;20572;-85
2022/12/30 14:01:24;;;;;;;10.23;1.70;;;8.10;99.90;;;;;;4976448;28;20077;-85
2022/12/30 14:04:12;;;;;;;8.85;1.63;;;8.10;99.90;;;;;;4977302;28;20402;-85
2022/12/30 14:06:50;;;;;;;9.00;1.90;;;8.10;99.90;;;;;;4945904;28;20054;-85
2022/12/30 14:09:20;;;;;;;6.85;1.45;;;8.20;99.90;;;;;;4975539;28;20105;-85
2022/12/30 14:12:04;;;;;;;7.22;1.50;;;8.20;99.90;;;;;;4975433;28;20893;-84
2022/12/30 14:14:37;;;;;;;5.40;1.45;;;8.20;99.90;;;;;;4995130;28;20398;-85
2022/12/30 14:17:07;;;;;;;7.97;1.33;;;8.20;99.90;;;;;;4977909;28;20089;-86
2022/12/30 14:19:45;;;;;;;9.13;1.70;;;8.20;99.90;;;;;;4978560;28;20046;-85
2022/12/30 14:22:40;;;;;;;10.73;1.70;;;8.20;99.90;;;;;;4993782;28;20085;-86
2022/12/30 14:25:15;;;;;;;9.30;1.70;;;8.20;99.90;;;;;;4996040;28;20056;-86
2022/12/30 14:27:49;;;;;;;8.60;1.52;;;8.30;99.90;;;;;;4978530;28;20394;-85
2022/12/30 14:30:32;;;;;;;7.40;1.40;;;8.30;99.90;;;;;;4977888;28;20073;-86
2022/12/30 14:33:03;;;;;;;;;;;8.30;99.90;;;;;;4975395;28;20058;-85
2022/12/30 14:35:29;;;;;;;6.30;1.30;;;8.20;99.90;;;;;;4973028;28;20452;-86
2022/12/30 14:38:23;;;;;;;5.80;1.40;;;8.20;99.90;;;;;;4974628;28;20078;-85
2022/12/30 14:41:04;;;;;;;6.85;1.65;;;8.30;99.90;;;;;;4972692;28;20053;-85
2022/12/30 14:43:31;;;;;;;6.53;1.50;;;8.30;99.90;;;;;;4993759;28;20057;-86
2022/12/30 14:46:32;;;;;;;6.45;1.45;;;8.30;99.90;;;;;;4977662;28;20034;-86
2022/12/30 14:49:18;;;;;;;9.07;1.67;;;8.30;99.90;;;;;;4977559;28;20578;-85
2022/12/30 14:52:17;;;;;;;7.30;1.67;;;8.40;99.90;;;;;;4975400;28;20042;-85
2022/12/30 14:55:22;;;;;;;7.22;1.38;;;8.40;99.90;;;;;;4947142;28;20065;-84
2022/12/30 14:57:58;;;;;;;5.95;1.33;;;8.40;99.90;;;;;;4969525;28;20392;-85
2022/12/30 15:00:28;;;;;;;5.90;1.40;;;8.40;99.90;;;;;;4976179;28;20129;-85
2022/12/30 15:02:55;;;;;;;6.20;1.40;;;8.40;99.90;;;;;;4991735;28;20046;-85